createdAt,value
2022-09-22T00:01:43.216Z,6.90
2022-09-22T00:04:13.671Z,6.90
2022-09-22T00:06:47.862Z,6.80
2022-09-22T00:09:21.455Z,6.90
2022-09-22T00:11:54.039Z,6.80
2022-09-22T00:14:28.401Z,6.80
2022-09-22T00:17:02.526Z,6.80
2022-09-22T00:19:37.974Z,6.80
2022-09-22T00:22:06.995Z,6.90
2022-09-22T00:24:35.040Z,6.80
2022-09-22T00:27:02.914Z,6.80
2022-09-22T00:29:31.471Z,6.80
2022-09-22T00:32:03.549Z,6.80
2022-09-22T00:34:32.564Z,6.70
2022-09-22T00:37:00.320Z,6.70
2022-09-22T00:39:30.891Z,6.70
2022-09-22T00:41:59.194Z,6.70
2022-09-22T00:44:43.847Z,6.70
2022-09-22T00:47:36.502Z,6.60
2022-09-22T00:50:24.371Z,6.60
2022-09-22T00:53:12.989Z,6.50
2022-09-22T00:56:08.975Z,6.50
2022-09-22T00:59:10.344Z,6.50
2022-09-22T01:01:39.435Z,6.50
2022-09-22T01:04:08.547Z,6.50
2022-09-22T01:06:40.925Z,6.50
2022-09-22T01:09:10.502Z,6.50
2022-09-22T01:11:41.726Z,6.50
2022-09-22T01:15:10.652Z,6.50
2022-09-22T01:18:33.959Z,6.60
2022-09-22T01:21:40.079Z,6.50
2022-09-22T01:25:16.038Z,6.50
2022-09-22T01:28:36.309Z,6.40
2022-09-22T01:32:18.880Z,6.20
2022-09-22T01:35:27.888Z,6.20
2022-09-22T01:38:30.371Z,6.10
2022-09-22T01:41:26.736Z,6.10
2022-09-22T01:44:10.070Z,6.20
2022-09-22T01:46:55.964Z,6.30
2022-09-22T01:49:30.683Z,6.20
2022-09-22T01:52:33.690Z,6.10
2022-09-22T01:55:23.988Z,6.00
2022-09-22T01:58:12.870Z,6.20
2022-09-22T02:01:14.411Z,6.10
2022-09-22T02:04:18.416Z,6.10
2022-09-22T02:07:09.701Z,6.10
2022-09-22T02:09:42.567Z,6.00
2022-09-22T02:12:10.218Z,6.00
2022-09-22T02:14:37.872Z,6.00
2022-09-22T02:17:08.892Z,6.00
2022-09-22T02:19:41.639Z,5.90
2022-09-22T02:22:12.312Z,5.90
2022-09-22T02:24:47.297Z,5.90
2022-09-22T02:27:36.485Z,5.90
2022-09-22T02:30:14.258Z,5.80
2022-09-22T02:32:51.329Z,5.90
2022-09-22T02:35:20.852Z,5.80
2022-09-22T02:38:21.014Z,5.80
2022-09-22T02:41:11.026Z,5.60
2022-09-22T02:43:59.121Z,5.70
2022-09-22T02:46:46.308Z,5.70
2022-09-22T02:49:20.036Z,5.60
2022-09-22T02:51:50.464Z,5.60
2022-09-22T02:54:18.198Z,5.50
2022-09-22T02:56:46.592Z,5.60
2022-09-22T02:59:14.578Z,5.70
2022-09-22T03:01:43.058Z,5.60
2022-09-22T03:04:10.923Z,5.50
2022-09-22T03:06:38.713Z,5.60
2022-09-22T03:09:06.669Z,5.50
2022-09-22T03:11:34.321Z,5.50
2022-09-22T03:14:01.948Z,5.50
2022-09-22T03:16:29.635Z,5.50
2022-09-22T03:18:57.487Z,5.40
2022-09-22T03:21:25.225Z,5.50
2022-09-22T03:23:53.165Z,5.50
2022-09-22T03:26:20.900Z,5.50
2022-09-22T03:28:48.832Z,5.40
2022-09-22T03:31:16.609Z,5.40
2022-09-22T03:33:44.817Z,5.40
2022-09-22T03:36:14.271Z,5.50
2022-09-22T03:38:41.868Z,5.40
2022-09-22T03:41:10.186Z,5.40
2022-09-22T03:43:38.044Z,5.30
2022-09-22T03:46:05.713Z,5.30
2022-09-22T03:48:33.361Z,5.30
2022-09-22T03:51:01.150Z,5.30
2022-09-22T03:53:29.109Z,5.30
2022-09-22T03:56:16.867Z,5.30
2022-09-22T03:58:45.141Z,5.40
2022-09-22T04:01:13.377Z,5.30
2022-09-22T04:03:41.257Z,5.20
2022-09-22T04:06:10.845Z,5.10
2022-09-22T04:08:38.669Z,5.20
2022-09-22T04:11:08.430Z,5.10
2022-09-22T04:13:36.215Z,5.10
2022-09-22T04:16:06.041Z,5.10
2022-09-22T04:18:34.419Z,5.00
2022-09-22T04:21:02.053Z,5.10
2022-09-22T04:23:29.643Z,5.00
2022-09-22T04:25:57.325Z,5.10
2022-09-22T04:28:25.326Z,5.10
2022-09-22T04:30:54.015Z,5.20
2022-09-22T04:33:24.646Z,5.10
2022-09-22T04:35:54.201Z,5.10
2022-09-22T04:38:23.530Z,5.00
2022-09-22T04:40:54.709Z,4.90
2022-09-22T04:43:23.855Z,4.90
2022-09-22T04:45:52.608Z,5.00
2022-09-22T04:48:21.569Z,5.00
2022-09-22T04:50:50.319Z,5.00
2022-09-22T04:53:18.480Z,5.00
2022-09-22T04:55:46.154Z,4.90
2022-09-22T04:58:14.143Z,4.90
2022-09-22T05:00:42.050Z,4.90
2022-09-22T05:03:19.886Z,4.90
2022-09-22T05:05:49.721Z,4.90
2022-09-22T05:08:17.950Z,4.90
2022-09-22T05:10:46.499Z,4.90
2022-09-22T05:13:14.247Z,4.90
2022-09-22T05:15:42.403Z,4.90
2022-09-22T05:18:10.076Z,4.90
2022-09-22T05:20:39.307Z,4.90
2022-09-22T05:23:07.376Z,4.90
2022-09-22T05:25:35.264Z,4.90
2022-09-22T05:28:03.218Z,4.90
2022-09-22T05:30:31.138Z,4.90
2022-09-22T05:32:58.812Z,5.00
2022-09-22T05:35:26.929Z,5.00
2022-09-22T05:37:54.985Z,5.10
2022-09-22T05:40:25.106Z,5.10
2022-09-22T05:42:54.988Z,5.20
2022-09-22T05:45:23.070Z,5.20
2022-09-22T05:47:51.716Z,5.20
2022-09-22T05:50:23.853Z,5.20
2022-09-22T05:52:52.031Z,5.20
2022-09-22T05:55:19.867Z,5.20
2022-09-22T05:57:48.544Z,5.30
2022-09-22T06:00:16.707Z,5.30
2022-09-22T06:02:45.304Z,5.40
2022-09-22T06:05:16.343Z,5.50
2022-09-22T06:07:45.846Z,5.50
2022-09-22T06:10:13.438Z,5.60
2022-09-22T06:12:41.245Z,5.60
2022-09-22T06:15:09.857Z,5.70
2022-09-22T06:17:37.454Z,5.80
2022-09-22T06:20:06.531Z,5.80
2022-09-22T06:22:36.487Z,5.90
2022-09-22T06:25:05.251Z,6.00
2022-09-22T06:27:33.277Z,6.00
2022-09-22T06:30:00.989Z,6.10
2022-09-22T06:32:28.599Z,6.30
2022-09-22T06:34:56.896Z,6.30
2022-09-22T06:37:24.765Z,6.50
2022-09-22T06:39:52.412Z,6.60
2022-09-22T06:42:20.044Z,6.70
2022-09-22T06:44:48.131Z,6.80
2022-09-22T06:47:15.972Z,7.10
2022-09-22T06:49:43.640Z,8.00
2022-09-22T06:52:15.050Z,8.90
2022-09-22T06:54:42.845Z,10.00
2022-09-22T06:57:11.635Z,10.90
2022-09-22T06:59:41.049Z,11.70
2022-09-22T07:02:10.677Z,12.00
2022-09-22T07:04:38.416Z,12.50
2022-09-22T07:07:05.998Z,12.70
2022-09-22T07:09:34.186Z,12.90
2022-09-22T07:12:02.312Z,13.70
2022-09-22T07:14:29.999Z,13.90
2022-09-22T07:16:57.538Z,14.20
2022-09-22T07:19:25.224Z,14.30
2022-09-22T07:21:52.926Z,14.20
2022-09-22T07:24:20.675Z,14.80
2022-09-22T07:26:48.465Z,15.10
2022-09-22T07:29:16.941Z,15.00
2022-09-22T07:31:44.809Z,14.90
2022-09-22T07:34:14.916Z,15.50
2022-09-22T07:36:42.621Z,15.60
2022-09-22T07:39:11.397Z,16.80
2022-09-22T07:41:43.508Z,17.10
2022-09-22T07:44:34.318Z,16.90
2022-09-22T07:47:04.869Z,17.20
2022-09-22T07:49:32.603Z,17.20
2022-09-22T07:52:00.546Z,17.00
2022-09-22T07:54:28.559Z,17.00
2022-09-22T07:56:59.003Z,16.90
2022-09-22T07:59:27.633Z,17.00
2022-09-22T08:01:56.418Z,17.80
2022-09-22T08:04:26.919Z,17.80
2022-09-22T08:06:56.311Z,17.90
2022-09-22T08:09:26.502Z,18.20
2022-09-22T08:11:54.810Z,18.10
2022-09-22T08:14:23.944Z,17.80
2022-09-22T08:16:53.958Z,17.60
2022-09-22T08:19:24.684Z,18.20
2022-09-22T08:21:54.681Z,18.70
2022-09-22T08:24:23.961Z,19.30
2022-09-22T08:26:55.956Z,19.80
2022-09-22T08:29:24.619Z,19.90
2022-09-22T08:31:54.270Z,20.00
2022-09-22T08:34:22.702Z,20.50
2022-09-22T08:36:52.682Z,19.40
2022-09-22T08:39:23.175Z,19.30
2022-09-22T08:42:23.583Z,18.50
2022-09-22T08:45:15.836Z,18.70
2022-09-22T08:48:15.599Z,19.70
2022-09-22T08:51:20.906Z,20.30
2022-09-22T08:53:51.801Z,20.20
2022-09-22T08:57:30.600Z,20.60
2022-09-22T09:00:18.983Z,20.20
2022-09-22T09:03:32.806Z,19.90
2022-09-22T09:06:47.499Z,19.70
2022-09-22T09:09:46.946Z,18.70
2022-09-22T09:12:47.018Z,18.60
2022-09-22T09:16:08.956Z,19.30
2022-09-22T09:18:47.568Z,19.70
2022-09-22T09:21:16.267Z,20.70
2022-09-22T09:26:49.739Z,18.00
2022-09-22T09:29:29.867Z,18.40
2022-09-22T09:32:04.245Z,18.30
2022-09-22T09:34:33.780Z,18.30
2022-09-22T09:37:16.005Z,18.10
2022-09-22T09:39:46.316Z,18.00
2022-09-22T09:42:33.251Z,17.80
2022-09-22T09:45:02.982Z,17.20
2022-09-22T09:48:20.035Z,16.90
2022-09-22T09:50:48.451Z,16.90
2022-09-22T09:53:41.475Z,16.80
2022-09-22T09:56:31.861Z,16.90
2022-09-22T09:59:31.005Z,16.90
2022-09-22T10:02:01.266Z,16.90
2022-09-22T10:04:37.332Z,17.00
2022-09-22T10:07:24.821Z,17.00
2022-09-22T10:09:56.350Z,17.00
2022-09-22T10:12:35.595Z,17.20
2022-09-22T10:15:22.983Z,17.10
2022-09-22T10:17:51.389Z,17.20
2022-09-22T10:20:34.575Z,17.20
2022-09-22T10:23:24.033Z,17.30
2022-09-22T10:25:51.908Z,17.10
2022-09-22T10:28:22.263Z,17.20
2022-09-22T10:31:05.201Z,17.30
2022-09-22T10:33:33.920Z,16.50
2022-09-22T10:36:12.658Z,16.60
2022-09-22T10:38:43.839Z,16.60
2022-09-22T10:41:30.899Z,16.50
2022-09-22T10:44:37.947Z,16.60
2022-09-22T10:48:02.393Z,16.90
2022-09-22T10:50:56.055Z,16.70
2022-09-22T10:54:00.860Z,16.50
2022-09-22T10:57:10.224Z,16.20
2022-09-22T11:00:38.258Z,16.50
2022-09-22T11:04:03.735Z,17.20
2022-09-22T11:08:18.538Z,18.30
2022-09-22T11:12:07.570Z,18.20
2022-09-22T11:15:31.251Z,18.40
2022-09-22T11:19:16.100Z,18.50
2022-09-22T11:22:24.362Z,18.70
2022-09-22T11:25:32.370Z,18.10
2022-09-22T11:29:22.512Z,17.30
2022-09-22T11:32:47.695Z,17.50
2022-09-22T11:35:51.076Z,17.90
2022-09-22T11:39:02.041Z,18.20
2022-09-22T11:42:00.456Z,18.20
2022-09-22T11:44:43.357Z,18.20
2022-09-22T11:47:39.583Z,18.40
2022-09-22T11:50:51.400Z,18.00
2022-09-22T11:53:56.693Z,18.20
2022-09-22T11:57:02.127Z,18.50
2022-09-22T12:00:16.192Z,18.40
2022-09-22T12:03:12.251Z,18.20
2022-09-22T12:06:12.265Z,17.90
2022-09-22T12:08:57.977Z,17.90
2022-09-22T12:11:29.361Z,18.10
2022-09-22T12:14:01.252Z,18.30
2022-09-22T12:17:26.098Z,18.30
2022-09-22T12:20:35.704Z,17.90
2022-09-22T12:23:45.264Z,18.20
2022-09-22T12:26:39.099Z,18.20
2022-09-22T12:29:31.014Z,18.30
2022-09-22T12:32:00.294Z,18.40
2022-09-22T12:34:40.072Z,18.40
2022-09-22T12:37:36.400Z,18.30
2022-09-22T12:40:37.455Z,18.20
2022-09-22T12:43:06.372Z,17.90
2022-09-22T12:45:45.352Z,18.10
2022-09-22T12:48:34.847Z,18.10
2022-09-22T12:51:33.313Z,17.90
2022-09-22T12:54:22.607Z,17.70
2022-09-22T12:57:09.413Z,17.60
2022-09-22T12:59:37.509Z,17.50
2022-09-22T13:02:18.383Z,17.80
2022-09-22T13:04:55.251Z,17.90
2022-09-22T13:07:43.597Z,18.00
2022-09-22T13:10:43.474Z,18.00
2022-09-22T13:13:36.844Z,18.40
2022-09-22T13:16:16.754Z,18.50
2022-09-22T13:19:00.361Z,18.50
2022-09-22T13:21:33.650Z,18.40
2022-09-22T13:24:06.475Z,18.30
2022-09-22T13:26:41.989Z,18.20
2022-09-22T13:29:21.488Z,18.10
2022-09-22T13:31:57.900Z,18.20
2022-09-22T13:34:36.725Z,18.20
2022-09-22T13:37:22.425Z,18.20
2022-09-22T13:39:55.462Z,18.10
2022-09-22T13:42:32.694Z,17.90
2022-09-22T13:45:24.001Z,17.80
2022-09-22T13:48:08.302Z,17.50
2022-09-22T13:50:58.095Z,17.40
2022-09-22T13:53:26.278Z,17.40
2022-09-22T13:55:54.556Z,17.40
2022-09-22T13:58:39.354Z,17.20
2022-09-22T14:01:30.361Z,17.10
2022-09-22T14:03:58.429Z,16.90
2022-09-22T14:06:37.087Z,17.10
2022-09-22T14:09:05.076Z,17.40
2022-09-22T14:11:33.534Z,17.80
2022-09-22T14:14:03.041Z,18.00
2022-09-22T14:16:59.972Z,18.20
2022-09-22T14:19:52.789Z,18.50
2022-09-22T14:22:32.470Z,18.60
2022-09-22T14:25:05.071Z,18.60
2022-09-22T14:27:59.833Z,18.40
2022-09-22T14:30:31.333Z,18.30
2022-09-22T14:33:04.393Z,18.30
2022-09-22T14:35:37.489Z,18.70
2022-09-22T14:38:16.918Z,18.90
2022-09-22T14:40:58.959Z,18.70
2022-09-22T14:43:38.007Z,18.70
2022-09-22T14:46:36.798Z,18.50
2022-09-22T14:49:49.610Z,18.50
2022-09-22T14:52:49.338Z,18.70
2022-09-22T14:55:39.534Z,18.90
2022-09-22T14:58:22.208Z,18.60
2022-09-22T15:01:42.163Z,18.40
2022-09-22T15:04:30.455Z,18.40
2022-09-22T15:06:59.487Z,18.30
2022-09-22T15:09:38.549Z,18.30
2022-09-22T15:12:27.213Z,18.40
2022-09-22T15:15:00.437Z,18.30
2022-09-22T15:18:04.922Z,18.30
2022-09-22T15:20:44.978Z,18.30
2022-09-22T15:23:28.433Z,18.40
2022-09-22T15:26:05.217Z,18.40
2022-09-22T15:28:37.864Z,18.40
2022-09-22T15:31:06.953Z,18.50
2022-09-22T15:33:34.627Z,18.30
2022-09-22T15:36:15.899Z,18.20
2022-09-22T15:38:44.413Z,18.40
2022-09-22T15:41:13.681Z,18.20
2022-09-22T15:43:42.731Z,18.00
2022-09-22T15:46:37.750Z,18.00
2022-09-22T15:49:26.479Z,17.80
2022-09-22T15:51:56.746Z,17.70
2022-09-22T15:54:26.845Z,17.60
2022-09-22T15:56:59.798Z,17.40
2022-09-22T15:59:33.532Z,17.40
2022-09-22T16:02:01.878Z,17.30
2022-09-22T16:04:32.474Z,17.30
2022-09-22T16:07:12.550Z,17.30
2022-09-22T16:09:40.440Z,17.20
2022-09-22T16:12:13.873Z,17.20
2022-09-22T16:14:42.243Z,17.20
2022-09-22T16:17:09.828Z,17.20
2022-09-22T16:19:37.467Z,17.10
2022-09-22T16:22:05.995Z,17.20
2022-09-22T16:24:33.577Z,17.20
2022-09-22T16:27:04.578Z,17.00
2022-09-22T16:29:33.670Z,16.90
2022-09-22T16:32:01.572Z,16.80
2022-09-22T16:34:29.684Z,16.80
2022-09-22T16:36:57.351Z,16.70
2022-09-22T16:39:25.286Z,16.50
2022-09-22T16:41:52.955Z,16.40
2022-09-22T16:44:22.152Z,16.30
2022-09-22T16:46:49.860Z,16.20
2022-09-22T16:49:20.091Z,16.10
2022-09-22T16:51:50.858Z,16.00
2022-09-22T16:54:20.350Z,15.90
2022-09-22T16:56:51.448Z,15.80
2022-09-22T16:59:23.513Z,15.60
2022-09-22T17:01:51.850Z,15.50
2022-09-22T17:04:20.379Z,15.40
2022-09-22T17:06:49.537Z,15.20
2022-09-22T17:09:19.232Z,15.10
2022-09-22T17:11:49.283Z,14.90
2022-09-22T17:14:22.176Z,14.70
2022-09-22T17:16:57.562Z,14.50
2022-09-22T17:19:28.176Z,14.30
2022-09-22T17:21:57.731Z,14.10
2022-09-22T17:24:29.036Z,14.00
2022-09-22T17:26:59.389Z,13.80
2022-09-22T17:29:32.749Z,13.60
2022-09-22T17:32:08.117Z,13.50
2022-09-22T17:34:37.783Z,13.30
2022-09-22T17:37:06.026Z,13.20
2022-09-22T17:39:34.363Z,13.00
2022-09-22T17:42:02.270Z,12.90
2022-09-22T17:44:33.667Z,12.80
2022-09-22T17:47:20.065Z,12.60
2022-09-22T17:50:06.097Z,12.50
2022-09-22T17:52:39.894Z,12.50
2022-09-22T17:55:23.414Z,12.40
2022-09-22T17:57:52.761Z,12.30
2022-09-22T18:00:24.533Z,12.20
2022-09-22T18:02:54.427Z,12.20
2022-09-22T18:05:27.362Z,12.10
2022-09-22T18:07:58.567Z,12.10
2022-09-22T18:10:34.220Z,12.10
2022-09-22T18:13:04.154Z,12.10
2022-09-22T18:15:31.958Z,12.10
2022-09-22T18:17:59.628Z,11.90
2022-09-22T18:20:27.904Z,11.80
2022-09-22T18:22:56.227Z,11.70
2022-09-22T18:25:25.711Z,11.70
2022-09-22T18:27:54.606Z,11.60
2022-09-22T18:30:22.474Z,11.60
2022-09-22T18:32:50.309Z,11.60
2022-09-22T18:35:18.703Z,11.60
2022-09-22T18:37:46.407Z,11.40
2022-09-22T18:40:14.066Z,11.50
2022-09-22T18:42:45.139Z,11.40
2022-09-22T18:45:14.232Z,11.40
2022-09-22T18:47:43.484Z,11.40
2022-09-22T18:50:17.213Z,11.30
2022-09-22T18:52:47.991Z,11.20
2022-09-22T18:55:18.436Z,11.20
2022-09-22T18:57:48.174Z,11.20
2022-09-22T19:00:21.117Z,11.10
2022-09-22T19:02:51.068Z,11.10
2022-09-22T19:05:19.578Z,11.10
2022-09-22T19:07:48.444Z,11.10
2022-09-22T19:10:23.495Z,11.00
2022-09-22T19:12:54.677Z,11.00
2022-09-22T19:15:23.216Z,10.90
2022-09-22T19:17:51.069Z,10.80
2022-09-22T19:20:24.053Z,10.80
2022-09-22T19:22:53.991Z,10.80
2022-09-22T19:25:23.301Z,10.70
2022-09-22T19:27:54.139Z,10.60
2022-09-22T19:30:26.628Z,10.50
2022-09-22T19:32:57.376Z,10.40
2022-09-22T19:35:25.057Z,10.40
2022-09-22T19:37:54.440Z,10.50
2022-09-22T19:40:25.204Z,10.60
2022-09-22T19:42:55.393Z,10.70
2022-09-22T19:45:25.743Z,10.70
2022-09-22T19:47:58.550Z,10.60
2022-09-22T19:50:27.050Z,10.60
2022-09-22T19:52:54.657Z,10.50
2022-09-22T19:55:22.505Z,10.30
2022-09-22T19:57:52.424Z,10.30
2022-09-22T20:00:26.459Z,10.20
2022-09-22T20:02:58.944Z,10.20
2022-09-22T20:05:37.069Z,10.00
2022-09-22T20:08:15.930Z,10.00
2022-09-22T20:11:16.452Z,9.90
2022-09-22T20:14:02.329Z,9.90
2022-09-22T20:16:31.676Z,9.90
2022-09-22T20:18:59.331Z,9.80
2022-09-22T20:21:27.963Z,9.80
2022-09-22T20:23:55.662Z,9.70
2022-09-22T20:26:24.349Z,9.70
2022-09-22T20:28:52.648Z,9.70
2022-09-22T20:31:20.586Z,9.70
2022-09-22T20:33:48.575Z,9.70
2022-09-22T20:36:16.720Z,9.60
2022-09-22T20:38:44.474Z,9.60
2022-09-22T20:41:32.298Z,9.60
2022-09-22T20:44:00.205Z,9.50
2022-09-22T20:46:27.995Z,9.50
2022-09-22T20:49:00.503Z,9.40
2022-09-22T20:51:28.563Z,9.40
2022-09-22T20:53:56.306Z,9.40
2022-09-22T20:56:24.093Z,9.40
2022-09-22T20:58:51.915Z,9.40
2022-09-22T21:01:20.117Z,9.40
2022-09-22T21:03:48.701Z,9.30
2022-09-22T21:06:18.045Z,9.20
2022-09-22T21:09:05.138Z,9.20
2022-09-22T21:11:33.702Z,9.20
2022-09-22T21:14:05.796Z,9.20
2022-09-22T21:16:40.130Z,9.20
2022-09-22T21:19:08.408Z,9.10
2022-09-22T21:21:37.918Z,9.10
2022-09-22T21:24:06.596Z,9.10
2022-09-22T21:26:34.848Z,9.00
2022-09-22T21:29:02.752Z,9.00
2022-09-22T21:31:30.510Z,9.10
2022-09-22T21:33:58.389Z,9.00
2022-09-22T21:36:26.602Z,9.00
2022-09-22T21:38:59.409Z,9.00
2022-09-22T21:41:33.845Z,9.00
2022-09-22T21:44:04.077Z,9.00
2022-09-22T21:46:36.090Z,9.00
2022-09-22T21:49:05.619Z,9.00
2022-09-22T21:51:42.884Z,8.90
2022-09-22T21:54:20.088Z,8.90
2022-09-22T21:56:50.553Z,8.90
2022-09-22T21:59:18.517Z,8.90
2022-09-22T22:01:46.314Z,8.90
2022-09-22T22:04:15.281Z,8.90
2022-09-22T22:06:46.795Z,8.80
2022-09-22T22:09:23.180Z,8.90
2022-09-22T22:11:59.495Z,8.80
2022-09-22T22:14:35.017Z,8.80
2022-09-22T22:17:02.729Z,8.80
2022-09-22T22:19:31.106Z,8.70
2022-09-22T22:21:58.850Z,8.70
2022-09-22T22:24:42.565Z,8.60
2022-09-22T22:27:11.705Z,8.70
2022-09-22T22:29:39.574Z,8.70
2022-09-22T22:32:11.021Z,8.80
2022-09-22T22:34:39.553Z,8.80
2022-09-22T22:37:09.764Z,8.70
2022-09-22T22:39:38.044Z,8.70
2022-09-22T22:42:07.134Z,8.70
2022-09-22T22:44:35.368Z,8.70
2022-09-22T22:47:03.156Z,8.70
2022-09-22T22:49:31.481Z,8.70
2022-09-22T22:51:59.312Z,8.70
2022-09-22T22:54:26.914Z,8.70
2022-09-22T22:56:54.546Z,8.70
2022-09-22T22:59:22.178Z,8.70
2022-09-22T23:01:49.838Z,8.70
2022-09-22T23:04:18.207Z,8.60
2022-09-22T23:06:47.366Z,8.60
2022-09-22T23:09:17.629Z,8.50
2022-09-22T23:11:46.543Z,8.50
2022-09-22T23:14:16.234Z,8.50
2022-09-22T23:16:47.316Z,8.40
2022-09-22T23:19:19.126Z,8.40
2022-09-22T23:21:47.771Z,8.40
2022-09-22T23:24:19.216Z,8.40
2022-09-22T23:26:50.825Z,8.40
2022-09-22T23:29:18.653Z,8.40
2022-09-22T23:31:46.240Z,8.40
2022-09-22T23:34:14.139Z,8.40
2022-09-22T23:36:42.000Z,8.40
2022-09-22T23:39:12.944Z,8.40
2022-09-22T23:41:40.636Z,8.50
2022-09-22T23:44:08.499Z,8.40
2022-09-22T23:46:38.273Z,8.40
2022-09-22T23:49:06.755Z,8.40
2022-09-22T23:51:34.385Z,8.40
2022-09-22T23:54:02.467Z,8.40
2022-09-22T23:56:30.071Z,8.50
2022-09-22T23:58:57.708Z,8.40
